Time;durP1;ratioP1;P1;durP2;ratioP2;P2;SDS_P1;SDS_P2;PMS_P1;PMS_P2;Temp;Humidity;BMP_temperature;BMP_pressure;BME280_temperature;BME280_humidity;BME280_pressure;Samples;Min_cycle;Max_cycle;Signal;HPM_P1;HPM_P2
2021/11/03 00:02:08;;;;;;;11.07;9.50;;;7.70;99.90;;;;;;5032929;23;20385;-71
2021/11/03 00:04:36;;;;;;;12.73;9.37;;;7.70;99.90;;;;;;5106703;28;20172;-72
2021/11/03 00:07:02;;;;;;;10.27;9.13;;;7.80;99.90;;;;;;5094797;28;20412;-72
2021/11/03 00:09:28;;;;;;;9.90;8.10;;;7.90;99.90;;;;;;5094521;28;20409;-73
2021/11/03 00:11:53;;;;;;;11.80;9.43;;;7.90;99.90;;;;;;5096005;28;20509;-72
2021/11/03 00:14:19;;;;;;;14.43;9.20;;;7.90;99.90;;;;;;5095674;28;20192;-73
2021/11/03 00:16:45;;;;;;;11.10;9.47;;;7.90;99.90;;;;;;5095041;28;20161;-73
2021/11/03 00:19:10;;;;;;;10.13;8.87;;;7.90;99.90;;;;;;5095887;28;20165;-72
2021/11/03 00:21:36;;;;;;;9.23;8.00;;;7.90;99.90;;;;;;5074029;28;20197;-72
2021/11/03 00:24:02;;;;;;;9.83;8.57;;;8.00;99.90;;;;;;5073395;28;20206;-72
2021/11/03 00:26:27;;;;;;;12.07;9.73;;;8.00;99.90;;;;;;5081844;28;20205;-72
2021/11/03 00:28:53;;;;;;;10.00;8.67;;;7.90;99.90;;;;;;5083263;28;20416;-72
2021/11/03 00:31:19;;;;;;;11.43;9.00;;;8.00;99.90;;;;;;5075134;28;20174;-71
2021/11/03 00:33:44;;;;;;;10.13;9.03;;;7.80;99.90;;;;;;5074744;28;20194;-72
2021/11/03 00:36:10;;;;;;;11.80;8.90;;;7.70;99.90;;;;;;5074546;28;20174;-72
2021/11/03 00:38:36;;;;;;;10.73;9.63;;;7.70;99.90;;;;;;5074846;28;20808;-72
2021/11/03 00:41:02;;;;;;;12.20;9.20;;;7.60;99.90;;;;;;5074598;28;20504;-72
2021/11/03 00:43:28;;;;;;;10.77;8.70;;;7.60;99.90;;;;;;5056020;28;20440;-72
2021/11/03 00:45:54;;;;;;;11.45;10.25;;;7.60;99.90;;;;;;5051666;28;20434;-72
2021/11/03 00:48:20;;;;;;;13.33;9.00;;;7.50;99.90;;;;;;5054705;28;20229;-72
2021/11/03 00:50:46;;;;;;;12.33;9.10;;;7.50;99.90;;;;;;5039035;28;20185;-72
2021/11/03 00:53:12;;;;;;;13.10;9.90;;;7.50;99.90;;;;;;5056794;28;20453;-72
2021/11/03 00:55:37;;;;;;;11.70;10.10;;;7.40;99.90;;;;;;5053603;28;20754;-72
2021/11/03 00:58:03;;;;;;;10.50;9.03;;;7.40;99.90;;;;;;5055236;28;20398;-72
2021/11/03 01:00:29;;;;;;;10.20;8.87;;;7.40;99.90;;;;;;5054507;28;20640;-72
2021/11/03 01:02:55;;;;;;;10.17;8.93;;;7.30;99.90;;;;;;5081168;28;20210;-71
2021/11/03 01:05:23;;;;;;;10.03;9.03;;;7.20;99.90;;;;;;5082693;28;20197;-72
2021/11/03 01:07:49;;;;;;;9.87;8.87;;;7.20;99.90;;;;;;5094329;28;20481;-72
2021/11/03 01:10:15;;;;;;;12.03;9.90;;;7.20;99.90;;;;;;5095008;28;20446;-72
2021/11/03 01:12:43;;;;;;;14.43;11.10;;;7.20;99.90;;;;;;5094104;28;20246;-73
2021/11/03 01:15:12;;;;;;;13.10;9.83;;;7.10;99.90;;;;;;5093836;28;20828;-73
2021/11/03 01:17:37;;;;;;;13.23;10.10;;;7.10;99.90;;;;;;5093821;28;20411;-72
2021/11/03 01:20:08;;;;;;;10.47;9.10;;;7.10;99.90;;;;;;5094411;28;20544;-72
2021/11/03 01:22:34;;;;;;;14.40;10.30;;;7.00;99.90;;;;;;5094510;28;20554;-71
2021/11/03 01:24:59;;;;;;;13.60;9.80;;;7.00;99.90;;;;;;5075640;28;20422;-71
2021/11/03 01:27:25;;;;;;;13.13;9.50;;;6.90;99.90;;;;;;5093940;28;20504;-72
2021/11/03 01:29:50;;;;;;;10.80;9.27;;;6.90;99.90;;;;;;5093939;28;20177;-72
2021/11/03 01:32:16;;;;;;;11.73;9.70;;;6.90;99.90;;;;;;5093893;28;20224;-72
2021/11/03 01:34:42;;;;;;;14.50;10.60;;;6.80;99.90;;;;;;5093916;28;20279;-72
2021/11/03 01:37:07;;;;;;;11.77;9.20;;;6.70;99.90;;;;;;5093864;28;20164;-72
2021/11/03 01:39:33;;;;;;;11.40;9.30;;;6.70;99.90;;;;;;5093804;28;20622;-71
2021/11/03 01:41:58;;;;;;;11.87;9.30;;;6.80;99.90;;;;;;5093695;28;20222;-72
2021/11/03 01:44:24;;;;;;;10.80;8.97;;;6.80;99.90;;;;;;5093544;28;20173;-71
2021/11/03 01:46:56;;;;;;;11.07;9.13;;;6.70;99.90;;;;;;5093049;28;20184;-73
2021/11/03 01:49:26;;;;;;;8.87;7.97;;;6.80;99.90;;;;;;5093640;28;20242;-71
2021/11/03 01:51:53;;;;;;;9.93;7.90;;;6.70;99.90;;;;;;5093376;28;20492;-71
2021/11/03 01:54:25;;;;;;;10.57;7.93;;;6.80;99.90;;;;;;5093482;28;20541;-72
2021/11/03 01:56:52;;;;;;;10.20;7.70;;;6.70;99.90;;;;;;5092644;28;20411;-72
2021/11/03 01:59:26;;;;;;;9.30;7.97;;;6.80;99.90;;;;;;5093320;28;20891;-72
2021/11/03 02:01:52;;;;;;;10.13;7.50;;;6.80;99.90;;;;;;5092800;28;20446;-72
2021/11/03 02:04:19;;;;;;;9.20;7.53;;;6.80;99.90;;;;;;5075060;28;20433;-72
2021/11/03 02:06:45;;;;;;;11.40;8.20;;;6.80;99.90;;;;;;5092894;28;20169;-72
2021/11/03 02:09:11;;;;;;;10.17;7.53;;;6.80;99.90;;;;;;5092882;28;20415;-72
2021/11/03 02:11:37;;;;;;;10.20;7.50;;;6.80;99.90;;;;;;5093044;28;20442;-72
2021/11/03 02:14:05;;;;;;;11.90;8.90;;;6.80;99.90;;;;;;5092925;28;20454;-72
2021/11/03 02:16:33;;;;;;;8.97;8.03;;;6.90;99.90;;;;;;5091529;28;20415;-72
2021/11/03 02:18:58;;;;;;;11.30;8.80;;;6.90;99.90;;;;;;5074680;28;20430;-72
2021/11/03 02:21:34;;;;;;;11.83;7.97;;;6.90;99.90;;;;;;5092727;28;20790;-72
2021/11/03 02:24:15;;;;;;;13.17;8.53;;;7.10;99.90;;;;;;5093194;28;20252;-72
2021/11/03 02:26:47;;;;;;;10.10;7.93;;;7.10;99.90;;;;;;5092576;28;20405;-71
2021/11/03 02:29:17;;;;;;;9.40;8.03;;;7.00;99.90;;;;;;5092974;28;20411;-71
2021/11/03 02:31:49;;;;;;;13.30;8.20;;;6.90;99.90;;;;;;5092524;28;20941;-72
2021/11/03 02:34:23;;;;;;;9.27;8.27;;;6.90;99.90;;;;;;5092604;28;20447;-71
2021/11/03 02:36:58;;;;;;;14.07;9.10;;;6.70;99.90;;;;;;5092374;28;20406;-73
2021/11/03 02:39:39;;;;;;;9.93;8.40;;;6.70;99.90;;;;;;5092409;28;20505;-72
2021/11/03 02:42:05;;;;;;;11.00;9.20;;;6.60;99.90;;;;;;5092620;28;20431;-71
2021/11/03 02:44:35;;;;;;;11.43;8.27;;;6.70;99.90;;;;;;5092146;28;20420;-71
2021/11/03 02:47:02;;;;;;;10.27;8.27;;;6.60;99.90;;;;;;5092497;28;20519;-72
2021/11/03 02:49:28;;;;;;;12.03;8.10;;;6.60;99.90;;;;;;5092371;28;20419;-72
2021/11/03 02:51:53;;;;;;;8.67;7.77;;;6.70;99.90;;;;;;5092045;28;20430;-72
2021/11/03 02:54:21;;;;;;;11.37;7.93;;;6.60;99.90;;;;;;5073929;28;20310;-73
2021/11/03 02:56:53;;;;;;;13.07;8.83;;;6.60;99.90;;;;;;5091882;28;20673;-73
2021/11/03 02:59:22;;;;;;;10.93;8.70;;;6.60;99.90;;;;;;5092258;28;20487;-73
2021/11/03 03:01:53;;;;;;;12.63;8.63;;;6.60;99.90;;;;;;5078177;28;21020;-72
2021/11/03 03:04:23;;;;;;;10.27;8.33;;;6.50;99.90;;;;;;5072375;28;20444;-73
2021/11/03 03:06:50;;;;;;;10.83;8.17;;;6.50;99.90;;;;;;5081080;28;20403;-72
2021/11/03 03:09:16;;;;;;;11.70;8.80;;;6.50;99.90;;;;;;5088622;28;20440;-72
2021/11/03 03:11:46;;;;;;;10.13;8.03;;;6.40;99.90;;;;;;5092301;28;20430;-71
2021/11/03 03:14:13;;;;;;;12.57;9.43;;;6.40;99.90;;;;;;5091870;28;20450;-72
2021/11/03 03:16:40;;;;;;;11.20;8.57;;;6.40;99.90;;;;;;5091359;28;20549;-72
2021/11/03 03:19:06;;;;;;;11.07;9.30;;;6.50;99.90;;;;;;5091890;28;20399;-72
2021/11/03 03:21:32;;;;;;;12.37;9.00;;;6.50;99.90;;;;;;5091604;28;20885;-73
2021/11/03 03:24:00;;;;;;;11.33;8.90;;;6.40;99.90;;;;;;5091914;28;20403;-73
2021/11/03 03:26:25;;;;;;;13.90;10.00;;;6.30;99.90;;;;;;5091555;28;20407;-73
2021/11/03 03:28:51;;;;;;;12.63;9.80;;;6.30;99.90;;;;;;5091706;28;20418;-73
2021/11/03 03:31:18;;;;;;;12.27;8.93;;;6.20;99.90;;;;;;5091790;28;20177;-72
2021/11/03 03:33:44;;;;;;;12.57;9.37;;;6.30;99.90;;;;;;5091512;28;20825;-73
2021/11/03 03:36:10;;;;;;;10.80;9.17;;;6.30;99.90;;;;;;5091471;28;20480;-73
2021/11/03 03:38:36;;;;;;;12.70;9.20;;;6.30;99.90;;;;;;5091800;28;20804;-73
2021/11/03 03:41:02;;;;;;;10.97;9.07;;;6.30;99.90;;;;;;5091768;28;20167;-72
2021/11/03 03:43:27;;;;;;;10.20;8.33;;;6.20;99.90;;;;;;5091475;28;20184;-72
2021/11/03 03:45:53;;;;;;;10.77;8.00;;;6.30;99.90;;;;;;5091329;28;20415;-72
2021/11/03 03:48:19;;;;;;;12.60;9.07;;;6.30;99.90;;;;;;5091612;28;20176;-73
2021/11/03 03:50:44;;;;;;;11.30;8.97;;;6.30;99.90;;;;;;5091868;28;20184;-72
2021/11/03 03:53:10;;;;;;;12.43;9.33;;;6.30;99.90;;;;;;5091875;28;20469;-73
2021/11/03 03:55:41;;;;;;;11.63;8.57;;;6.20;99.90;;;;;;5091791;28;20165;-73
2021/11/03 03:58:07;;;;;;;11.53;8.53;;;6.20;99.90;;;;;;5092024;28;20413;-73
2021/11/03 04:00:34;;;;;;;11.43;9.30;;;6.30;99.90;;;;;;5092076;28;20919;-72
2021/11/03 04:03:00;;;;;;;12.83;9.00;;;6.30;99.90;;;;;;5091247;28;20434;-72
2021/11/03 04:05:26;;;;;;;11.77;8.40;;;6.40;99.90;;;;;;5091325;28;20437;-72
2021/11/03 04:07:52;;;;;;;8.63;7.63;;;6.40;99.90;;;;;;5091430;28;20410;-72
2021/11/03 04:10:19;;;;;;;10.67;9.47;;;6.40;99.90;;;;;;5091576;28;20251;-73
2021/11/03 04:12:45;;;;;;;12.37;9.00;;;6.50;99.90;;;;;;5091536;28;20193;-73
2021/11/03 04:15:12;;;;;;;12.43;9.50;;;6.50;99.90;;;;;;5091039;28;20947;-72
2021/11/03 04:17:38;;;;;;;12.00;8.80;;;6.50;99.90;;;;;;5091374;28;20438;-73
2021/11/03 04:20:06;;;;;;;12.60;8.07;;;6.50;99.90;;;;;;5073153;28;20831;-73
2021/11/03 04:22:31;;;;;;;11.93;9.03;;;6.50;99.90;;;;;;5090948;28;20181;-72
2021/11/03 04:24:57;;;;;;;10.73;8.50;;;6.50;99.90;;;;;;5091079;28;20429;-72
2021/11/03 04:27:23;;;;;;;13.30;9.43;;;6.50;99.90;;;;;;5091322;28;20212;-72
2021/11/03 04:29:48;;;;;;;12.17;8.60;;;6.50;99.90;;;;;;5090985;28;20656;-72
2021/11/03 04:32:14;;;;;;;15.83;8.63;;;6.60;99.90;;;;;;5089574;28;20185;-73
2021/11/03 04:34:39;;;;;;;10.40;9.20;;;6.60;99.90;;;;;;5090919;28;20215;-72
2021/11/03 04:37:05;;;;;;;12.07;9.20;;;6.70;99.90;;;;;;5091212;28;20244;-73
2021/11/03 04:39:31;;;;;;;13.17;9.43;;;6.80;99.90;;;;;;5091089;28;20257;-72
2021/11/03 04:41:57;;;;;;;14.20;9.43;;;6.90;99.90;;;;;;5094676;28;20456;-72
2021/11/03 04:44:22;;;;;;;11.23;8.60;;;7.00;99.90;;;;;;5094809;28;20536;-73
2021/11/03 04:46:48;;;;;;;12.13;8.67;;;7.10;99.90;;;;;;5094455;28;20165;-72
2021/11/03 04:49:14;;;;;;;11.50;9.10;;;7.20;99.90;;;;;;5094699;28;20193;-73
2021/11/03 04:51:39;;;;;;;13.43;9.70;;;7.30;99.90;;;;;;5094324;28;20463;-72
2021/11/03 04:54:05;;;;;;;11.33;9.20;;;7.40;99.90;;;;;;5094548;28;20197;-72
2021/11/03 04:56:32;;;;;;;11.83;9.63;;;7.40;99.90;;;;;;5094169;28;20172;-72
2021/11/03 04:58:58;;;;;;;13.30;10.03;;;7.50;99.90;;;;;;5084341;28;20193;-72
2021/11/03 05:01:25;;;;;;;11.53;9.07;;;7.50;99.90;;;;;;5093606;28;20420;-72
2021/11/03 05:03:51;;;;;;;9.47;8.43;;;7.60;99.90;;;;;;5091599;28;20412;-73
2021/11/03 05:06:20;;;;;;;14.23;9.00;;;7.60;99.90;;;;;;5072623;28;20415;-73
2021/11/03 05:08:47;;;;;;;13.00;7.93;;;7.60;99.90;;;;;;5084338;28;20427;-73
2021/11/03 05:11:13;;;;;;;11.37;8.20;;;7.70;99.90;;;;;;5074279;28;20496;-72
2021/11/03 05:13:38;;;;;;;11.50;8.50;;;7.70;99.90;;;;;;5074082;28;20856;-72
2021/11/03 05:16:04;;;;;;;14.00;8.90;;;7.60;99.90;;;;;;5073207;28;20593;-72
2021/11/03 05:18:30;;;;;;;13.53;9.47;;;7.70;99.90;;;;;;5074217;28;20649;-73
2021/11/03 05:20:55;;;;;;;11.20;8.00;;;7.70;99.90;;;;;;5073844;28;20166;-73
2021/11/03 05:23:24;;;;;;;15.37;8.90;;;7.70;99.90;;;;;;5073720;28;20201;-72
2021/11/03 05:25:51;;;;;;;10.80;8.20;;;7.70;99.90;;;;;;5055240;28;20269;-72
2021/11/03 05:28:17;;;;;;;13.03;9.70;;;7.70;99.90;;;;;;5073707;28;20445;-73
2021/11/03 05:30:43;;;;;;;9.13;7.80;;;7.80;99.90;;;;;;5066959;28;20828;-73
2021/11/03 05:33:08;;;;;;;8.57;7.40;;;7.80;99.90;;;;;;5072619;28;20432;-72
2021/11/03 05:35:34;;;;;;;10.17;8.23;;;7.70;99.90;;;;;;5071846;28;20162;-72
2021/11/03 05:38:00;;;;;;;11.20;8.13;;;7.70;99.90;;;;;;5073037;28;20174;-72
2021/11/03 05:40:27;;;;;;;10.70;8.73;;;7.80;99.90;;;;;;5073191;28;20223;-73
2021/11/03 05:42:53;;;;;;;14.33;9.93;;;7.70;99.90;;;;;;5073559;28;20189;-72
2021/11/03 05:45:20;;;;;;;15.50;11.80;;;7.70;99.90;;;;;;5073246;28;20787;-72
2021/11/03 05:47:46;;;;;;;14.03;10.53;;;7.70;99.90;;;;;;5073165;28;20432;-73
2021/11/03 05:50:18;;;;;;;11.20;9.07;;;7.70;99.90;;;;;;5068257;28;20407;-72
2021/11/03 05:52:44;;;;;;;11.40;8.70;;;7.60;99.90;;;;;;5068569;28;20935;-73
2021/11/03 05:55:11;;;;;;;11.13;8.40;;;7.70;99.90;;;;;;5076298;28;20543;-72
2021/11/03 05:57:38;;;;;;;11.23;9.37;;;7.70;99.90;;;;;;5064645;28;20169;-73
2021/11/03 06:00:09;;;;;;;10.43;8.10;;;7.80;99.90;;;;;;5082240;28;20407;-69
2021/11/03 06:02:34;;;;;;;12.30;8.30;;;7.80;99.90;;;;;;5081073;28;20462;-73
2021/11/03 06:05:00;;;;;;;11.10;8.47;;;7.90;99.90;;;;;;5076539;28;20444;-71
2021/11/03 06:07:25;;;;;;;11.13;8.57;;;7.90;99.90;;;;;;5082736;28;20173;-72
2021/11/03 06:09:52;;;;;;;12.67;8.43;;;7.90;99.90;;;;;;5085009;28;20178;-71
2021/11/03 06:12:18;;;;;;;9.57;7.90;;;7.90;99.90;;;;;;5071366;28;20201;-73
2021/11/03 06:14:43;;;;;;;15.43;11.90;;;7.90;99.90;;;;;;5078031;28;20521;-73
2021/11/03 06:17:09;;;;;;;14.20;8.57;;;7.90;99.90;;;;;;5066441;28;20305;-72
2021/11/03 06:19:35;;;;;;;11.40;10.20;;;7.90;99.90;;;;;;5075701;28;20590;-72
2021/11/03 06:22:01;;;;;;;13.93;10.87;;;8.00;99.90;;;;;;5072354;28;20201;-72
2021/11/03 06:24:28;;;;;;;12.03;10.60;;;7.90;99.90;;;;;;5079420;28;20784;-73
2021/11/03 06:26:54;;;;;;;11.70;10.07;;;7.70;99.90;;;;;;5073101;28;20183;-73
2021/11/03 06:29:19;;;;;;;9.87;8.43;;;7.60;99.90;;;;;;5082442;28;20513;-72
2021/11/03 06:31:45;;;;;;;10.87;8.87;;;7.50;99.90;;;;;;5078164;28;20245;-72
2021/11/03 06:34:10;;;;;;;11.63;8.40;;;7.50;99.90;;;;;;5067884;28;20577;-72
2021/11/03 06:36:37;;;;;;;10.40;8.20;;;7.50;99.90;;;;;;5027199;22;20239;-72
2021/11/03 06:39:04;;;;;;;11.33;8.60;;;7.50;99.90;;;;;;4998504;28;20730;-72
2021/11/03 06:41:31;;;;;;;12.13;7.87;;;7.60;99.90;;;;;;4996393;28;20475;-71
2021/11/03 06:43:57;;;;;;;12.80;9.27;;;7.70;99.90;;;;;;4989027;28;20553;-71
2021/11/03 06:46:23;;;;;;;14.23;8.07;;;7.80;99.90;;;;;;4981655;28;20468;-71
2021/11/03 06:48:48;;;;;;;11.90;8.57;;;7.80;99.90;;;;;;4974067;28;20225;-73
2021/11/03 06:51:14;;;;;;;11.37;9.20;;;7.90;99.90;;;;;;4986153;28;20221;-72
2021/11/03 06:53:40;;;;;;;9.17;8.13;;;7.90;99.90;;;;;;4986492;28;20223;-70
2021/11/03 06:56:08;;;;;;;11.10;7.63;;;7.90;99.90;;;;;;4988049;28;20204;-71
2021/11/03 06:58:34;;;;;;;8.80;7.90;;;7.90;99.90;;;;;;4979960;28;20445;-71
2021/11/03 07:01:01;;;;;;;10.17;7.40;;;7.90;99.90;;;;;;4972946;28;20436;-70
2021/11/03 07:03:27;;;;;;;10.23;8.20;;;8.00;99.90;;;;;;4985694;28;20458;-70
2021/11/03 07:05:54;;;;;;;11.60;7.80;;;8.00;99.90;;;;;;4979555;28;20490;-72
2021/11/03 07:08:22;;;;;;;11.73;8.90;;;8.10;99.90;;;;;;4980883;28;20463;-71
2021/11/03 07:10:50;;;;;;;12.27;8.20;;;8.10;99.90;;;;;;4981825;28;20505;-72
2021/11/03 07:13:16;;;;;;;8.30;7.40;;;8.20;99.90;;;;;;4966265;28;20466;-71
2021/11/03 07:15:43;;;;;;;10.10;7.50;;;8.20;99.90;;;;;;4966445;28;20439;-71
2021/11/03 07:18:09;;;;;;;11.47;8.10;;;8.20;99.90;;;;;;4966163;28;20435;-71
2021/11/03 07:20:36;;;;;;;9.70;7.03;;;8.30;99.90;;;;;;4969142;28;20463;-72
2021/11/03 07:23:02;;;;;;;7.63;6.60;;;8.30;99.90;;;;;;4968197;28;20409;-72
2021/11/03 07:25:28;;;;;;;11.43;7.40;;;8.30;99.90;;;;;;4968102;28;20433;-71
2021/11/03 07:27:55;;;;;;;15.13;8.13;;;8.40;99.90;;;;;;4968577;28;20245;-71
2021/11/03 07:30:25;;;;;;;9.33;7.13;;;8.40;99.90;;;;;;4967492;28;20422;-71
2021/11/03 07:32:50;;;;;;;10.10;7.33;;;8.30;99.90;;;;;;4986639;28;20418;-70
2021/11/03 07:35:16;;;;;;;11.70;9.53;;;8.30;99.90;;;;;;4986271;28;20475;-73
2021/11/03 07:37:42;;;;;;;12.07;7.27;;;8.30;99.90;;;;;;4986449;28;20269;-72
2021/11/03 07:40:10;;;;;;;12.63;6.97;;;8.20;99.90;;;;;;4986722;28;20422;-72
2021/11/03 07:42:36;;;;;;;11.03;8.27;;;8.20;99.90;;;;;;4986791;28;20427;-73
2021/11/03 07:45:03;;;;;;;11.23;7.67;;;8.30;99.90;;;;;;4984580;28;20441;-71
2021/11/03 07:47:29;;;;;;;9.90;7.67;;;8.30;99.90;;;;;;4974250;28;20468;-71
2021/11/03 07:49:55;;;;;;;12.40;8.10;;;8.40;99.90;;;;;;4985282;28;20849;-71
2021/11/03 07:52:20;;;;;;;11.20;8.87;;;8.40;99.90;;;;;;4986754;28;20615;-72
2021/11/03 07:54:46;;;;;;;12.20;8.57;;;8.40;99.90;;;;;;4985889;28;20726;-74
2021/11/03 07:57:11;;;;;;;10.20;8.53;;;8.40;99.90;;;;;;4986913;28;20703;-73
2021/11/03 07:59:37;;;;;;;12.50;8.67;;;8.40;99.90;;;;;;4987069;28;20177;-72
2021/11/03 08:02:03;;;;;;;10.77;8.77;;;8.50;99.90;;;;;;4983290;28;20190;-72
2021/11/03 08:04:30;;;;;;;11.53;8.47;;;8.60;99.90;;;;;;4985366;28;20432;-72
2021/11/03 08:06:55;;;;;;;11.13;8.97;;;8.60;99.90;;;;;;4980609;28;20225;-71
2021/11/03 08:09:21;;;;;;;12.60;9.07;;;8.70;99.90;;;;;;4983669;28;20970;-72
2021/11/03 08:14:15;;;;;;;10.33;8.00;;;8.70;99.90;;;;;;4986511;28;20211;-72
2021/11/03 08:16:52;;;;;;;12.90;9.03;;;8.80;99.90;;;;;;4988451;28;20481;-71
2021/11/03 08:19:19;;;;;;;14.73;9.33;;;8.80;99.90;;;;;;4989830;28;20444;-72
2021/11/03 08:21:44;;;;;;;12.50;9.07;;;8.70;99.90;;;;;;4989643;28;20423;-71
2021/11/03 08:24:10;;;;;;;10.60;9.13;;;8.80;99.90;;;;;;4988879;28;20535;-70
2021/11/03 08:26:36;;;;;;;14.30;9.30;;;8.80;99.90;;;;;;4989865;28;20216;-71
2021/11/03 08:29:02;;;;;;;10.10;8.77;;;8.80;99.90;;;;;;4989408;28;20180;-70
2021/11/03 08:31:27;;;;;;;11.43;8.13;;;8.80;99.90;;;;;;4990093;28;20177;-71
2021/11/03 08:33:53;;;;;;;12.93;8.63;;;8.90;99.90;;;;;;4988174;28;20469;-71
2021/11/03 08:36:19;;;;;;;13.27;8.33;;;8.90;99.90;;;;;;4989200;28;20268;-71
2021/11/03 08:38:47;;;;;;;10.40;8.30;;;9.00;99.90;;;;;;4991120;28;20191;-71
2021/11/03 08:41:13;;;;;;;12.10;8.23;;;9.00;99.90;;;;;;4989983;28;20512;-71
2021/11/03 08:43:42;;;;;;;11.40;9.10;;;9.00;99.90;;;;;;4989908;28;20505;-72
2021/11/03 08:46:08;;;;;;;14.33;7.67;;;9.00;99.90;;;;;;4978236;28;20689;-71
2021/11/03 08:48:33;;;;;;;12.90;7.90;;;9.00;99.90;;;;;;4970474;28;20436;-71
2021/11/03 08:50:59;;;;;;;11.37;8.13;;;9.00;99.90;;;;;;4970236;28;20183;-71
2021/11/03 08:53:25;;;;;;;10.90;8.20;;;9.00;99.90;;;;;;4970341;28;20756;-72
2021/11/03 08:55:51;;;;;;;10.23;7.60;;;8.90;99.90;;;;;;4969918;28;20216;-72
2021/11/03 08:58:21;;;;;;;11.40;7.00;;;9.00;99.90;;;;;;4969945;28;20251;-71
2021/11/03 09:00:48;;;;;;;9.27;7.23;;;9.00;99.90;;;;;;4969371;28;20934;-72
2021/11/03 09:03:14;;;;;;;9.30;6.70;;;9.10;99.90;;;;;;4967776;28;20427;-72
2021/11/03 09:05:41;;;;;;;9.80;8.03;;;9.20;99.90;;;;;;4977353;28;20465;-72
2021/11/03 09:08:08;;;;;;;8.17;7.27;;;9.20;99.90;;;;;;4989078;28;20591;-72
2021/11/03 09:10:45;;;;;;;15.77;7.97;;;9.20;99.90;;;;;;4989107;28;20423;-71
2021/11/03 09:13:11;;;;;;;10.90;8.10;;;9.20;99.90;;;;;;4988775;28;20525;-72
2021/11/03 09:15:37;;;;;;;12.40;8.63;;;9.20;99.90;;;;;;4988768;28;20439;-72
2021/11/03 09:18:02;;;;;;;10.90;8.40;;;9.30;99.90;;;;;;4989033;28;20412;-72
2021/11/03 09:20:28;;;;;;;12.80;9.00;;;9.30;99.90;;;;;;4989388;28;20213;-70
2021/11/03 09:22:53;;;;;;;11.57;8.37;;;9.40;99.90;;;;;;4988770;28;20198;-72
2021/11/03 09:25:22;;;;;;;10.60;8.70;;;9.40;99.90;;;;;;4989304;28;20203;-72
2021/11/03 09:27:48;;;;;;;12.00;9.13;;;9.40;99.90;;;;;;4987925;28;20851;-72
2021/11/03 09:30:21;;;;;;;10.93;8.43;;;9.40;99.90;;;;;;4988522;28;20423;-72
2021/11/03 09:32:49;;;;;;;15.27;10.00;;;9.50;99.90;;;;;;4974018;28;20445;-71
2021/11/03 09:35:16;;;;;;;11.50;8.83;;;9.50;99.90;;;;;;4988398;28;20481;-73
2021/11/03 09:37:41;;;;;;;10.33;8.30;;;9.50;99.90;;;;;;4988549;28;20430;-72
2021/11/03 09:40:09;;;;;;;12.67;8.60;;;9.50;99.90;;;;;;4988775;28;20407;-71
2021/11/03 09:42:37;;;;;;;12.17;8.77;;;9.60;99.90;;;;;;4987162;28;20172;-72
2021/11/03 09:45:22;;;;;;;12.70;7.83;;;9.60;99.90;;;;;;4986975;28;20531;-72
2021/11/03 09:48:27;;;;;;;11.87;8.50;;;9.60;99.90;;;;;;4971265;28;20448;-73
2021/11/03 09:50:57;;;;;;;14.63;8.30;;;9.70;99.90;;;;;;4969612;28;20412;-71
2021/11/03 09:53:32;;;;;;;11.70;8.33;;;9.80;99.90;;;;;;4968102;28;20464;-72
2021/11/03 09:55:58;;;;;;;10.20;9.05;;;9.90;99.90;;;;;;4968303;28;20417;-72
2021/11/03 09:58:28;;;;;;;10.90;8.00;;;9.90;99.90;;;;;;4969283;28;20176;-73
2021/11/03 10:01:00;;;;;;;10.47;8.10;;;10.00;99.90;;;;;;4970098;28;20417;-73
2021/11/03 10:03:43;;;;;;;11.93;8.20;;;10.10;99.90;;;;;;4976021;28;20532;-72
2021/11/03 10:06:31;;;;;;;9.63;8.00;;;10.10;99.90;;;;;;4981790;28;20501;-71
2021/11/03 10:08:56;;;;;;;10.37;8.37;;;10.20;99.90;;;;;;4997977;28;20430;-71
2021/11/03 10:11:36;;;;;;;10.07;7.67;;;10.20;99.90;;;;;;4971728;28;20415;-72
2021/11/03 10:14:03;;;;;;;7.20;6.37;;;10.20;99.90;;;;;;4970005;28;20201;-71
2021/11/03 10:16:47;;;;;;;10.47;7.73;;;10.20;99.90;;;;;;4968866;28;20523;-72
2021/11/03 10:19:13;;;;;;;8.40;7.10;;;10.20;99.90;;;;;;4970007;28;20412;-73
2021/11/03 10:21:54;;;;;;;11.07;7.50;;;10.30;99.90;;;;;;4970890;28;20423;-72
2021/11/03 10:24:35;;;;;;;12.60;8.00;;;10.30;99.90;;;;;;4969890;28;20192;-72
2021/11/03 10:27:09;;;;;;;8.70;7.07;;;10.30;99.90;;;;;;4970680;28;20419;-71
2021/11/03 10:30:01;;;;;;;9.50;7.40;;;10.30;99.90;;;;;;4968899;28;20880;-71
2021/11/03 10:32:38;;;;;;;10.53;7.97;;;10.30;99.90;;;;;;4967595;28;20446;-71
2021/11/03 10:35:13;;;;;;;9.80;7.40;;;10.30;99.90;;;;;;4967516;28;20482;-69
2021/11/03 10:37:43;;;;;;;11.30;7.77;;;10.30;99.90;;;;;;4974971;28;20423;-71
2021/11/03 10:40:30;;;;;;;10.40;7.80;;;10.30;99.90;;;;;;4983257;28;20435;-70
2021/11/03 10:43:18;;;;;;;9.87;7.77;;;10.20;99.90;;;;;;4983951;28;20427;-69
2021/11/03 10:46:13;;;;;;;11.13;8.40;;;10.20;99.90;;;;;;4989773;28;20843;-71
2021/11/03 10:48:48;;;;;;;10.83;9.20;;;10.30;99.90;;;;;;4983219;28;20782;-71
2021/11/03 10:51:15;;;;;;;12.17;7.90;;;10.40;99.90;;;;;;4980491;28;20453;-72
2021/11/03 10:53:41;;;;;;;12.03;7.50;;;10.40;99.90;;;;;;4986228;28;20812;-72
2021/11/03 10:56:19;;;;;;;13.50;8.63;;;10.50;99.90;;;;;;4985377;28;20799;-71
2021/11/03 10:58:50;;;;;;;10.67;7.97;;;10.60;99.90;;;;;;4992822;28;20566;-72
2021/11/03 11:01:22;;;;;;;10.03;8.60;;;10.60;99.90;;;;;;4987027;28;20461;-71
2021/11/03 11:03:57;;;;;;;10.90;8.77;;;10.60;99.90;;;;;;4985014;28;20419;-71
2021/11/03 11:06:28;;;;;;;12.07;8.87;;;10.50;99.90;;;;;;4985382;28;20447;-72
2021/11/03 11:08:59;;;;;;;12.10;9.50;;;10.40;99.90;;;;;;4987168;28;20873;-70
2021/11/03 11:11:28;;;;;;;12.17;8.87;;;10.40;99.90;;;;;;4987448;28;20420;-70
2021/11/03 11:14:01;;;;;;;11.13;8.40;;;10.40;99.90;;;;;;4986710;28;20459;-71
2021/11/03 11:16:44;;;;;;;10.57;7.90;;;10.40;99.90;;;;;;4985953;28;20443;-70
2021/11/03 11:19:21;;;;;;;9.30;7.50;;;10.40;99.90;;;;;;4987063;28;20407;-71
2021/11/03 11:22:16;;;;;;;9.17;7.87;;;10.40;99.90;;;;;;4982433;28;20458;-72
2021/11/03 11:24:56;;;;;;;10.90;8.40;;;10.40;99.90;;;;;;4976600;28;20483;-71
2021/11/03 11:27:34;;;;;;;10.37;8.60;;;10.30;99.90;;;;;;4978442;28;20467;-74
2021/11/03 11:30:16;;;;;;;11.67;9.23;;;10.30;99.90;;;;;;4980831;28;20512;-72
2021/11/03 11:33:00;;;;;;;15.30;9.80;;;10.30;99.90;;;;;;4972632;28;20462;-70
2021/11/03 11:35:40;;;;;;;10.50;8.67;;;10.10;99.90;;;;;;4970008;28;20846;-72
2021/11/03 11:38:17;;;;;;;10.83;9.67;;;10.10;99.90;;;;;;4973142;28;20454;-71
2021/11/03 11:41:14;;;;;;;10.23;9.10;;;10.10;99.90;;;;;;4984568;28;20438;-72
2021/11/03 11:43:44;;;;;;;13.43;9.40;;;10.20;99.90;;;;;;4977924;28;20604;-70
2021/11/03 11:46:14;;;;;;;14.10;9.80;;;10.20;99.90;;;;;;4980511;28;20464;-71
2021/11/03 11:48:41;;;;;;;10.43;8.90;;;10.20;99.90;;;;;;4978052;28;20462;-71
2021/11/03 11:51:13;;;;;;;10.60;9.03;;;10.20;99.90;;;;;;4979978;28;20463;-72
2021/11/03 11:54:02;;;;;;;12.40;9.30;;;10.10;99.90;;;;;;4981560;28;20837;-73
2021/11/03 11:56:36;;;;;;;13.07;10.10;;;10.10;99.90;;;;;;4984073;28;20463;-71
2021/11/03 11:59:01;;;;;;;13.33;9.90;;;10.20;99.90;;;;;;4979038;28;20550;-72
2021/11/03 12:01:34;;;;;;;9.70;8.30;;;10.20;99.90;;;;;;4988254;28;20568;-71
2021/11/03 12:04:02;;;;;;;10.80;8.73;;;10.20;99.90;;;;;;4987868;28;20692;-71
2021/11/03 12:07:28;;;;;;;14.63;9.30;;;10.00;99.90;;;;;;4970124;28;20462;-72
2021/11/03 12:10:03;;;;;;;11.53;9.57;;;10.00;99.90;;;;;;4968340;28;20478;-73
2021/11/03 12:12:30;;;;;;;10.53;9.43;;;10.10;99.90;;;;;;4970104;28;20415;-70
2021/11/03 12:14:57;;;;;;;10.10;8.50;;;10.10;99.90;;;;;;4969981;28;20497;-71
2021/11/03 12:17:58;;;;;;;12.50;9.83;;;10.10;99.90;;;;;;4970673;28;20410;-71
2021/11/03 12:20:24;;;;;;;11.77;9.00;;;10.20;99.90;;;;;;5030055;28;20893;-71
2021/11/03 12:22:52;;;;;;;11.07;9.50;;;10.10;99.90;;;;;;5029315;28;20440;-71
2021/11/03 12:25:24;;;;;;;12.73;9.80;;;10.10;99.90;;;;;;5030690;28;20679;-71
2021/11/03 12:28:16;;;;;;;12.70;10.07;;;10.10;99.90;;;;;;5029271;28;20424;-72
2021/11/03 12:30:44;;;;;;;16.13;9.93;;;10.20;99.90;;;;;;5012576;28;20513;-71
2021/11/03 12:33:12;;;;;;;11.20;10.00;;;10.10;99.90;;;;;;5029999;28;20421;-72
2021/11/03 12:35:40;;;;;;;12.00;9.43;;;10.10;99.90;;;;;;5028269;28;20453;-71
2021/11/03 12:38:11;;;;;;;12.03;10.00;;;10.10;99.90;;;;;;5039407;28;20451;-71
2021/11/03 12:40:37;;;;;;;13.50;9.70;;;9.90;99.90;;;;;;5045717;28;20504;-72
2021/11/03 12:43:21;;;;;;;16.03;9.60;;;9.80;99.90;;;;;;5049302;28;20437;-71
2021/11/03 12:45:59;;;;;;;11.97;9.33;;;9.80;99.90;;;;;;5045573;22;21017;-73
2021/11/03 12:48:29;;;;;;;15.90;10.03;;;9.70;99.90;;;;;;4939472;28;20843;-72
2021/11/03 12:50:55;;;;;;;13.23;9.97;;;9.70;99.90;;;;;;4972211;28;20459;-73
2021/11/03 12:53:27;;;;;;;11.53;9.50;;;9.80;99.90;;;;;;5032082;28;20402;-72
2021/11/03 12:56:19;;;;;;;11.97;9.40;;;9.90;99.90;;;;;;5018007;28;20508;-72
2021/11/03 12:58:45;;;;;;;11.00;9.80;;;9.90;99.90;;;;;;4962763;28;20439;-73